Time;durP1;ratioP1;P1;durP2;ratioP2;P2;SDS_P1;SDS_P2;PMS_P1;PMS_P2;Temp;Humidity;BMP_temperature;BMP_pressure;BME280_temperature;BME280_humidity;BME280_pressure;Samples;Min_cycle;Max_cycle;Signal;HPM_P1;HPM_P2
2022/09/10 00:02:19;;;;;;;3.95;2.05;;;;;;;;;;5044220;28;20024;-82
2022/09/10 00:04:44;;;;;;;4.65;2.50;;;;;;;;;;5058409;28;20453;-83
2022/09/10 00:07:10;;;;;;;5.78;2.63;;;;;;;;;;5044972;28;20031;-83
2022/09/10 00:09:35;;;;;;;4.85;1.92;;;;;;;;;;5058740;28;20040;-83
2022/09/10 00:12:00;;;;;;;5.90;2.60;;;;;;;;;;5061646;28;20032;-83
2022/09/10 00:14:26;;;;;;;5.97;2.28;;;;;;;;;;5054006;28;20032;-83
2022/09/10 00:16:51;;;;;;;6.45;2.30;;;;;;;;;;5037194;28;20799;-83
2022/09/10 00:19:17;;;;;;;4.22;2.47;;;;;;;;;;5039242;28;20074;-82
2022/09/10 00:21:43;;;;;;;6.32;2.88;;;;;;;;;;5054071;28;20502;-83
2022/09/10 00:24:08;;;;;;;5.72;2.67;;;;;;;;;;5061606;28;20024;-83
2022/09/10 00:26:38;;;;;;;5.85;2.50;;;;;;;;;;5042560;28;20453;-83
2022/09/10 00:29:05;;;;;;;5.40;2.40;;;;;;;;;;5044481;28;20112;-83
2022/09/10 00:31:32;;;;;;;5.72;2.78;;;;;;;;;;5056956;28;21495;-82
2022/09/10 00:33:59;;;;;;;7.93;2.75;;;;;;;;;;5058126;28;20028;-83
2022/09/10 00:36:28;;;;;;;5.60;2.85;;;;;;;;;;5041963;28;20032;-83
2022/09/10 00:38:58;;;;;;;5.93;2.92;;;;;;;;;;5059379;28;20040;-83
2022/09/10 00:41:24;;;;;;;6.35;3.17;;;;;;;;;;5056625;28;20537;-83
2022/09/10 00:43:53;;;;;;;5.60;2.95;;;;;;;;;;5058991;28;20500;-82
2022/09/10 00:46:44;;;;;;;9.75;3.58;;;;;;;;;;5048330;28;20407;-83
2022/09/10 00:49:27;;;;;;;4.80;2.92;;;;;;;;;;5042380;28;20496;-83
2022/09/10 00:51:53;;;;;;;;;;;;;;;;;;5045715;28;20021;-84
2022/09/10 00:54:22;;;;;;;7.88;3.58;;;;;;;;;;5060836;28;19920;-83
2022/09/10 00:56:48;;;;;;;7.07;3.80;;;;;;;;;;5047480;28;20035;-83
2022/09/10 00:59:17;;;;;;;7.90;3.47;;;;;;;;;;5046037;28;20050;-83
2022/09/10 01:01:44;;;;;;;8.90;3.50;;;;;;;;;;5043296;28;20141;-83
2022/09/10 01:04:09;;;;;;;5.53;3.10;;;;;;;;;;5056461;28;20024;-83
2022/09/10 01:06:37;;;;;;;6.63;3.47;;;;;;;;;;5041158;28;20027;-81
2022/09/10 01:09:04;;;;;;;7.40;3.97;;;;;;;;;;5037602;28;20140;-83
2022/09/10 01:11:36;;;;;;;7.55;3.70;;;;;;;;;;5043353;28;20540;-83
2022/09/10 01:14:26;;;;;;;8.68;3.60;;;;;;;;;;5061345;28;20020;-83
2022/09/10 01:17:15;;;;;;;6.97;4.30;;;;;;;;;;5048101;28;20126;-82
2022/09/10 01:20:17;;;;;;;6.25;3.65;;;;;;;;;;5045160;28;20107;-80
2022/09/10 01:22:49;;;;;;;8.23;4.40;;;;;;;;;;5062600;28;20019;-83
2022/09/10 01:25:36;;;;;;;8.50;4.13;;;;;;;;;;5060099;28;20032;-83
2022/09/10 01:28:07;;;;;;;5.68;3.50;;;;;;;;;;5061713;28;20039;-81
2022/09/10 01:30:40;;;;;;;5.88;3.63;;;;;;;;;;5039753;28;20488;-83
2022/09/10 01:33:08;;;;;;;8.52;4.47;;;;;;;;;;5061785;28;20457;-83
2022/09/10 01:35:42;;;;;;;8.40;4.03;;;;;;;;;;5042874;28;20119;-83
2022/09/10 01:38:15;;;;;;;7.93;3.95;;;;;;;;;;5063874;28;20062;-83
2022/09/10 01:40:42;;;;;;;6.35;4.22;;;;;;;;;;5044696;28;20424;-82
2022/09/10 01:43:09;;;;;;;7.53;4.22;;;;;;;;;;5042796;28;20035;-82
2022/09/10 01:45:55;;;;;;;9.73;4.05;;;;;;;;;;5059183;28;20125;-81
2022/09/10 01:48:48;;;;;;;5.72;3.90;;;;;;;;;;5041543;28;20032;-82
2022/09/10 01:51:30;;;;;;;6.63;4.22;;;;;;;;;;5058100;28;20033;-81
2022/09/10 01:54:12;;;;;;;6.47;4.30;;;;;;;;;;5063578;28;20399;-81
2022/09/10 01:57:12;;;;;;;9.13;3.95;;;;;;;;;;5058690;28;20017;-81
2022/09/10 01:59:58;;;;;;;7.97;4.07;;;;;;;;;;5044381;28;20032;-81
2022/09/10 02:02:31;;;;;;;8.25;4.82;;;;;;;;;;5057939;28;20038;-81
2022/09/10 02:04:59;;;;;;;6.93;4.07;;;;;;;;;;5054623;28;20053;-81
2022/09/10 02:07:25;;;;;;;7.50;4.35;;;;;;;;;;5054132;28;20082;-81
2022/09/10 02:09:51;;;;;;;8.55;4.68;;;;;;;;;;5057305;28;20024;-81
2022/09/10 02:12:19;;;;;;;8.43;4.90;;;;;;;;;;5041198;28;20111;-81
2022/09/10 02:14:50;;;;;;;7.30;4.15;;;;;;;;;;5039761;28;20093;-80
2022/09/10 02:17:16;;;;;;;7.65;4.25;;;;;;;;;;5058617;28;20035;-81
2022/09/10 02:19:45;;;;;;;4.90;3.83;;;;;;;;;;5059480;28;20147;-80
2022/09/10 02:22:11;;;;;;;7.60;4.22;;;;;;;;;;5040785;28;20024;-80
2022/09/10 02:24:37;;;;;;;7.70;4.65;;;;;;;;;;5047252;28;20484;-81
2022/09/10 02:27:05;;;;;;;7.13;4.53;;;;;;;;;;5043206;28;20538;-81
2022/09/10 02:29:31;;;;;;;6.05;4.43;;;;;;;;;;5061671;28;20502;-81
2022/09/10 02:31:56;;;;;;;7.40;4.95;;;;;;;;;;5040472;28;20024;-81
2022/09/10 02:34:21;;;;;;;10.57;4.57;;;;;;;;;;5040113;28;20036;-81
2022/09/10 02:36:48;;;;;;;7.65;4.55;;;;;;;;;;5055732;28;20025;-81
2022/09/10 02:39:13;;;;;;;7.95;3.70;;;;;;;;;;5043841;28;20056;-81
2022/09/10 02:41:40;;;;;;;8.88;4.30;;;;;;;;;;5044089;28;20066;-80
2022/09/10 02:44:06;;;;;;;6.93;3.95;;;;;;;;;;5057244;28;20055;-81
2022/09/10 02:46:31;;;;;;;6.15;4.30;;;;;;;;;;5057893;28;20115;-81
2022/09/10 02:48:57;;;;;;;7.70;4.45;;;;;;;;;;5060250;28;20087;-81
2022/09/10 02:51:23;;;;;;;5.68;4.05;;;;;;;;;;5040811;28;20571;-81
2022/09/10 02:53:51;;;;;;;7.15;4.03;;;;;;;;;;5045483;28;20063;-81
2022/09/10 02:56:19;;;;;;;8.60;5.15;;;;;;;;;;5060793;28;20147;-81
2022/09/10 02:58:45;;;;;;;10.43;5.80;;;;;;;;;;5048789;28;20491;-81
2022/09/10 03:01:17;;;;;;;7.35;4.88;;;;;;;;;;5041637;28;20028;-81
2022/09/10 03:03:42;;;;;;;8.88;5.10;;;;;;;;;;5058266;28;20476;-80
2022/09/10 03:06:08;;;;;;;7.65;4.95;;;;;;;;;;5050650;28;20095;-81
2022/09/10 03:08:34;;;;;;;6.93;5.25;;;;;;;;;;5057460;28;20041;-81
2022/09/10 03:11:00;;;;;;;7.40;4.80;;;;;;;;;;5045729;28;20118;-80
2022/09/10 03:13:29;;;;;;;8.77;5.45;;;;;;;;;;5063022;28;20107;-81
2022/09/10 03:15:54;;;;;;;8.75;6.43;;;;;;;;;;5039557;28;20040;-81
2022/09/10 03:18:24;;;;;;;7.57;5.82;;;;;;;;;;5048359;28;20024;-81
2022/09/10 03:20:50;;;;;;;6.88;4.88;;;;;;;;;;5062442;28;20849;-81
2022/09/10 03:23:16;;;;;;;8.55;5.38;;;;;;;;;;5048079;28;20037;-81
2022/09/10 03:25:42;;;;;;;8.15;5.65;;;;;;;;;;5043551;28;20480;-81
2022/09/10 03:28:08;;;;;;;5.88;4.60;;;;;;;;;;5039934;28;20029;-81
2022/09/10 03:30:35;;;;;;;8.27;5.05;;;;;;;;;;5058736;28;20539;-80
2022/09/10 03:33:01;;;;;;;6.97;4.90;;;;;;;;;;5039902;28;21624;-81
2022/09/10 03:35:26;;;;;;;7.30;5.25;;;;;;;;;;5047284;28;20028;-81
2022/09/10 03:37:51;;;;;;;9.32;6.15;;;;;;;;;;5059634;28;20087;-80
2022/09/10 03:40:18;;;;;;;8.38;5.22;;;;;;;;;;5063660;28;20036;-81
2022/09/10 03:42:43;;;;;;;7.85;4.97;;;;;;;;;;5047587;28;20028;-80
2022/09/10 03:45:09;;;;;;;7.93;5.25;;;;;;;;;;5039752;28;20477;-80
2022/09/10 03:47:38;;;;;;;6.63;5.60;;;;;;;;;;5063390;28;20373;-80
2022/09/10 03:50:04;;;;;;;8.32;5.00;;;;;;;;;;5044270;28;20027;-81
2022/09/10 03:52:30;;;;;;;7.15;5.03;;;;;;;;;;5059137;28;20549;-80
2022/09/10 03:54:55;;;;;;;9.05;5.65;;;;;;;;;;5028008;28;20037;-81
2022/09/10 03:57:22;;;;;;;8.27;5.97;;;;;;;;;;5042908;28;20028;-80
2022/09/10 03:59:48;;;;;;;7.53;4.95;;;;;;;;;;5050232;28;20028;-81
2022/09/10 04:02:14;;;;;;;8.18;5.03;;;;;;;;;;5046945;28;20527;-81
2022/09/10 04:04:40;;;;;;;10.35;5.60;;;;;;;;;;5059996;28;20053;-81
2022/09/10 04:07:05;;;;;;;9.38;5.60;;;;;;;;;;5061188;28;20221;-80
2022/09/10 04:09:31;;;;;;;10.13;5.40;;;;;;;;;;5063152;28;20029;-80
2022/09/10 04:11:58;;;;;;;7.63;5.95;;;;;;;;;;5060572;28;20029;-81
2022/09/10 04:14:23;;;;;;;10.52;5.70;;;;;;;;;;5063389;28;20089;-79
2022/09/10 04:16:51;;;;;;;9.25;5.68;;;;;;;;;;5060181;28;20024;-80
2022/09/10 04:19:17;;;;;;;7.57;5.18;;;;;;;;;;5044311;28;20029;-81
2022/09/10 04:21:43;;;;;;;7.78;5.20;;;;;;;;;;5043416;28;20506;-80
2022/09/10 04:24:11;;;;;;;7.53;4.95;;;;;;;;;;5059991;28;20082;-81
2022/09/10 04:26:36;;;;;;;7.10;5.20;;;;;;;;;;5059444;28;20032;-81
2022/09/10 04:29:02;;;;;;;7.95;5.70;;;;;;;;;;5043158;28;20028;-80
2022/09/10 04:31:27;;;;;;;11.13;5.45;;;;;;;;;;5037921;28;20034;-80
2022/09/10 04:33:52;;;;;;;7.63;5.35;;;;;;;;;;5059475;28;20484;-80
2022/09/10 04:36:19;;;;;;;6.93;5.55;;;;;;;;;;5039634;28;20636;-81
2022/09/10 04:38:44;;;;;;;7.10;5.10;;;;;;;;;;5064076;28;20507;-80
2022/09/10 04:41:11;;;;;;;7.43;5.18;;;;;;;;;;5043659;28;20029;-81
2022/09/10 04:43:37;;;;;;;6.80;5.50;;;;;;;;;;5061559;28;20408;-81
2022/09/10 04:46:02;;;;;;;7.47;5.22;;;;;;;;;;5057856;28;20028;-80
2022/09/10 04:48:27;;;;;;;8.10;5.15;;;;;;;;;;5041734;28;20024;-80
2022/09/10 04:50:53;;;;;;;8.48;6.43;;;;;;;;;;5040006;28;20153;-82
2022/09/10 04:53:20;;;;;;;7.30;5.57;;;;;;;;;;5038787;28;20028;-81
2022/09/10 04:55:47;;;;;;;8.23;5.30;;;;;;;;;;5062209;28;20115;-81
2022/09/10 04:58:12;;;;;;;7.93;5.15;;;;;;;;;;5041719;28;20021;-81
2022/09/10 05:00:38;;;;;;;7.43;5.82;;;;;;;;;;5063157;28;20388;-81
2022/09/10 05:03:04;;;;;;;7.85;5.80;;;;;;;;;;5058371;28;20125;-80
2022/09/10 05:05:31;;;;;;;8.35;5.90;;;;;;;;;;5060640;28;20076;-81
2022/09/10 05:07:59;;;;;;;7.13;6.15;;;;;;;;;;5058878;28;20380;-82
2022/09/10 05:10:26;;;;;;;8.00;6.00;;;;;;;;;;5056968;28;20039;-82
2022/09/10 05:12:57;;;;;;;7.82;6.25;;;;;;;;;;5040409;28;20034;-81
2022/09/10 05:15:23;;;;;;;8.70;5.20;;;;;;;;;;5062764;28;21219;-81
2022/09/10 05:17:48;;;;;;;8.57;5.55;;;;;;;;;;5041794;28;20032;-80
2022/09/10 05:20:14;;;;;;;9.07;6.18;;;;;;;;;;5054845;28;20078;-80
2022/09/10 05:22:41;;;;;;;9.30;6.40;;;;;;;;;;5056759;28;20377;-81
2022/09/10 05:25:06;;;;;;;10.05;5.88;;;;;;;;;;5041488;28;20060;-81
2022/09/10 05:27:32;;;;;;;8.77;5.82;;;;;;;;;;5038660;28;20115;-81
2022/09/10 05:29:58;;;;;;;11.07;6.75;;;;;;;;;;5060614;28;20027;-80
2022/09/10 05:32:23;;;;;;;9.02;5.90;;;;;;;;;;5037054;28;20021;-81
2022/09/10 05:34:49;;;;;;;9.30;6.22;;;;;;;;;;5044049;28;20036;-81
2022/09/10 05:37:15;;;;;;;8.70;6.25;;;;;;;;;;5039182;28;20034;-81
2022/09/10 05:39:40;;;;;;;9.20;6.68;;;;;;;;;;5044606;28;20028;-81
2022/09/10 05:42:06;;;;;;;9.27;6.70;;;;;;;;;;5042792;28;20107;-81
2022/09/10 05:44:32;;;;;;;8.65;5.93;;;;;;;;;;5057277;28;20032;-81
2022/09/10 05:46:57;;;;;;;13.18;6.30;;;;;;;;;;5056946;28;20043;-82
2022/09/10 05:49:22;;;;;;;6.00;5.13;;;;;;;;;;5044828;28;20021;-81
2022/09/10 05:51:48;;;;;;;9.68;6.05;;;;;;;;;;5061351;28;20039;-81
2022/09/10 05:54:13;;;;;;;9.00;6.65;;;;;;;;;;5055715;28;20309;-80
2022/09/10 05:56:39;;;;;;;9.60;7.18;;;;;;;;;;5057006;28;20029;-80
2022/09/10 05:59:04;;;;;;;9.13;7.20;;;;;;;;;;5042116;28;20029;-80
2022/09/10 06:01:30;;;;;;;9.02;7.00;;;;;;;;;;5043042;28;20381;-81
2022/09/10 06:03:56;;;;;;;9.05;6.57;;;;;;;;;;5039167;28;20029;-81
2022/09/10 06:06:24;;;;;;;9.82;7.20;;;;;;;;;;5058120;28;20035;-81
2022/09/10 06:08:50;;;;;;;10.30;7.40;;;;;;;;;;5058926;28;20070;-81
2022/09/10 06:11:15;;;;;;;9.93;6.97;;;;;;;;;;5044466;28;20536;-80
2022/09/10 06:13:41;;;;;;;9.75;7.15;;;;;;;;;;5053197;28;20108;-81
2022/09/10 06:16:06;;;;;;;10.60;7.25;;;;;;;;;;5053812;28;20035;-81
2022/09/10 06:18:32;;;;;;;12.80;8.43;;;;;;;;;;5057797;28;20060;-80
2022/09/10 06:21:12;;;;;;;9.27;7.32;;;;;;;;;;5034811;28;20110;-81
2022/09/10 06:23:38;;;;;;;9.73;7.22;;;;;;;;;;5060432;28;20065;-81
2022/09/10 06:26:07;;;;;;;9.02;7.57;;;;;;;;;;5043507;28;20040;-80
2022/09/10 06:28:33;;;;;;;12.35;7.40;;;;;;;;;;5040465;28;20068;-81
2022/09/10 06:30:58;;;;;;;8.32;6.32;;;;;;;;;;5026333;28;20504;-81
2022/09/10 06:33:24;;;;;;;8.45;7.22;;;;;;;;;;5041683;28;20440;-80
2022/09/10 06:35:56;;;;;;;10.70;7.78;;;;;;;;;;5068223;28;20093;-81
2022/09/10 06:38:22;;;;;;;10.65;7.43;;;;;;;;;;5079827;28;20480;-80
2022/09/10 06:40:56;;;;;;;10.07;6.50;;;;;;;;;;5044378;28;20056;-80
2022/09/10 06:43:24;;;;;;;8.70;7.18;;;;;;;;;;5049201;28;20020;-80
2022/09/10 06:45:51;;;;;;;8.80;7.15;;;;;;;;;;5052584;28;20082;-81
2022/09/10 06:48:21;;;;;;;10.93;8.20;;;;;;;;;;5043956;28;20025;-80
2022/09/10 06:51:07;;;;;;;9.45;7.20;;;;;;;;;;5049389;28;20036;-80
2022/09/10 06:53:33;;;;;;;9.38;7.05;;;;;;;;;;5048624;28;20111;-79
2022/09/10 06:56:00;;;;;;;10.07;8.02;;;;;;;;;;5068655;28;20115;-81
2022/09/10 06:58:27;;;;;;;7.72;6.78;;;;;;;;;;5047687;28;20117;-81
2022/09/10 07:00:53;;;;;;;9.15;7.70;;;;;;;;;;5073843;28;20032;-81
2022/09/10 07:03:20;;;;;;;8.77;6.97;;;;;;;;;;5059569;28;20075;-81
2022/09/10 07:05:47;;;;;;;9.70;7.38;;;;;;;;;;5070919;28;20048;-81
2022/09/10 07:08:15;;;;;;;10.40;7.35;;;;;;;;;;5047212;28;20041;-81
2022/09/10 07:10:43;;;;;;;8.55;6.72;;;;;;;;;;5070802;28;20480;-81
2022/09/10 07:13:13;;;;;;;9.38;7.57;;;;;;;;;;5054093;28;20385;-80
2022/09/10 07:15:45;;;;;;;9.57;7.45;;;;;;;;;;5068032;28;20055;-81
2022/09/10 07:18:15;;;;;;;7.78;6.35;;;;;;;;;;5049827;28;20487;-81
2022/09/10 07:20:42;;;;;;;10.00;7.63;;;;;;;;;;5048680;28;20035;-81
2022/09/10 07:23:08;;;;;;;9.35;7.10;;;;;;;;;;5067941;28;20036;-80
2022/09/10 07:25:33;;;;;;;8.02;7.20;;;;;;;;;;5052427;28;20025;-81
2022/09/10 07:28:00;;;;;;;7.53;6.28;;;;;;;;;;5052724;28;20434;-80
2022/09/10 07:30:27;;;;;;;8.60;7.13;;;;;;;;;;5069269;28;20032;-81
2022/09/10 07:32:53;;;;;;;8.38;6.75;;;;;;;;;;5060873;28;20486;-81
2022/09/10 07:35:18;;;;;;;7.13;6.43;;;;;;;;;;5051846;28;20029;-81
2022/09/10 07:37:45;;;;;;;7.82;6.53;;;;;;;;;;5053893;28;20029;-81
2022/09/10 07:40:10;;;;;;;12.50;7.68;;;;;;;;;;5052171;28;20060;-80
2022/09/10 07:42:36;;;;;;;8.40;6.90;;;;;;;;;;5053200;28;20029;-81
2022/09/10 07:45:04;;;;;;;10.15;8.27;;;;;;;;;;5057132;28;20025;-80
2022/09/10 07:47:30;;;;;;;10.93;7.55;;;;;;;;;;5054146;28;20388;-81
2022/09/10 07:49:55;;;;;;;10.27;7.55;;;;;;;;;;5064015;28;20029;-80
2022/09/10 07:52:21;;;;;;;8.25;7.07;;;;;;;;;;5050751;28;20438;-80
2022/09/10 07:54:46;;;;;;;9.32;7.57;;;;;;;;;;5066979;28;20515;-81
2022/09/10 07:57:12;;;;;;;8.88;7.07;;;;;;;;;;5047183;28;20016;-81
2022/09/10 07:59:37;;;;;;;11.93;8.43;;;;;;;;;;5065635;28;20028;-80
2022/09/10 08:02:03;;;;;;;8.63;7.15;;;;;;;;;;5046580;28;20029;-81
2022/09/10 08:04:32;;;;;;;7.70;6.82;;;;;;;;;;5056262;28;20126;-80
2022/09/10 08:06:57;;;;;;;7.93;6.82;;;;;;;;;;5069476;28;20028;-81
2022/09/10 08:09:24;;;;;;;8.10;5.95;;;;;;;;;;5055448;28;20114;-81
2022/09/10 08:11:50;;;;;;;10.05;7.43;;;;;;;;;;5062773;28;20103;-80
2022/09/10 08:14:15;;;;;;;8.30;7.25;;;;;;;;;;5064854;28;20162;-80
2022/09/10 08:16:43;;;;;;;8.52;7.47;;;;;;;;;;5049724;28;20017;-81
2022/09/10 08:19:09;;;;;;;8.73;7.75;;;;;;;;;;5071399;28;20047;-80
2022/09/10 08:21:35;;;;;;;11.07;7.68;;;;;;;;;;5051160;28;20025;-80
2022/09/10 08:24:01;;;;;;;8.73;7.65;;;;;;;;;;5069028;28;20474;-80
2022/09/10 08:26:27;;;;;;;10.30;8.15;;;;;;;;;;5049601;28;20459;-80
2022/09/10 08:28:57;;;;;;;11.10;8.52;;;;;;;;;;5068999;28;20036;-80
2022/09/10 08:31:23;;;;;;;9.18;8.23;;;;;;;;;;5040629;28;20124;-80
2022/09/10 08:33:53;;;;;;;7.80;7.00;;;;;;;;;;5066756;28;20033;-80
2022/09/10 08:36:20;;;;;;;9.05;7.25;;;;;;;;;;5050275;28;20016;-80
2022/09/10 08:38:47;;;;;;;10.80;8.02;;;;;;;;;;5069045;28;20051;-80
2022/09/10 08:41:20;;;;;;;9.00;6.50;;;;;;;;;;5047113;28;20044;-81
2022/09/10 08:43:52;;;;;;;10.20;6.22;;;;;;;;;;5051911;28;20036;-81
2022/09/10 08:46:22;;;;;;;8.82;6.40;;;;;;;;;;5061983;28;20021;-81
2022/09/10 08:48:56;;;;;;;9.32;6.05;;;;;;;;;;5060470;28;20405;-80
2022/09/10 08:51:28;;;;;;;7.35;6.38;;;;;;;;;;5052796;28;20029;-81
2022/09/10 08:54:06;;;;;;;9.18;6.22;;;;;;;;;;5061343;28;20024;-80
2022/09/10 08:56:31;;;;;;;6.93;6.15;;;;;;;;;;5060160;28;20443;-81
2022/09/10 08:59:04;;;;;;;9.18;5.95;;;;;;;;;;5054310;28;20024;-80
2022/09/10 09:01:40;;;;;;;10.60;6.60;;;;;;;;;;5062497;28;20036;-80
2022/09/10 09:04:15;;;;;;;9.52;6.07;;;;;;;;;;5066315;28;20736;-81
2022/09/10 09:06:49;;;;;;;8.82;5.57;;;;;;;;;;5069564;28;20023;-81
2022/09/10 09:09:14;;;;;;;7.18;4.65;;;;;;;;;;5065213;28;20027;-80
2022/09/10 09:12:01;;;;;;;7.07;5.20;;;;;;;;;;5052313;28;20071;-81
2022/09/10 09:14:51;;;;;;;5.63;4.20;;;;;;;;;;5063202;28;20025;-80
2022/09/10 09:17:37;;;;;;;8.07;4.72;;;;;;;;;;5068269;28;20378;-81
2022/09/10 09:20:17;;;;;;;9.18;4.40;;;;;;;;;;5056786;28;20032;-80
2022/09/10 09:22:51;;;;;;;6.10;4.70;;;;;;;;;;5046928;28;20024;-81
2022/09/10 09:25:21;;;;;;;7.65;4.80;;;;;;;;;;5067354;28;20059;-80
2022/09/10 09:27:48;;;;;;;5.60;4.15;;;;;;;;;;5063642;28;20032;-81
2022/09/10 09:30:22;;;;;;;6.03;3.95;;;;;;;;;;5046228;28;20044;-80
2022/09/10 09:32:49;;;;;;;6.50;4.05;;;;;;;;;;5049234;28;20545;-80
2022/09/10 09:35:31;;;;;;;5.82;3.88;;;;;;;;;;5047641;28;20059;-81
2022/09/10 09:38:05;;;;;;;5.28;3.88;;;;;;;;;;5059825;28;20025;-81
2022/09/10 09:40:36;;;;;;;6.25;4.07;;;;;;;;;;5057625;28;20032;-79
2022/09/10 09:43:12;;;;;;;7.45;3.90;;;;;;;;;;5053499;28;20044;-80
2022/09/10 09:45:42;;;;;;;6.30;3.67;;;;;;;;;;5063924;28;20388;-81
2022/09/10 09:48:11;;;;;;;7.82;3.88;;;;;;;;;;5060888;28;20073;-80
2022/09/10 09:50:40;;;;;;;6.10;3.40;;;;;;;;;;5049802;28;20428;-81
2022/09/10 09:53:08;;;;;;;6.65;3.25;;;;;;;;;;5064175;28;20123;-80
2022/09/10 09:55:46;;;;;;;8.50;4.93;;;;;;;;;;5070841;28;20055;-80
2022/09/10 09:58:21;;;;;;;6.32;3.70;;;;;;;;;;5043609;28;20024;-80
2022/09/10 10:00:51;;;;;;;6.40;4.00;;;;;;;;;;5055214;28;20503;-80
2022/09/10 10:03:25;;;;;;;4.95;3.50;;;;;;;;;;5049552;28;20562;-80
2022/09/10 10:06:09;;;;;;;6.38;3.70;;;;;;;;;;5040343;28;20052;-80
2022/09/10 10:08:51;;;;;;;4.88;3.67;;;;;;;;;;5061830;28;20030;-80
2022/09/10 10:11:19;;;;;;;9.57;3.40;;;;;;;;;;5049387;28;20488;-80
2022/09/10 10:13:47;;;;;;;4.65;3.67;;;;;;;;;;5057258;28;20043;-80
2022/09/10 10:16:34;;;;;;;5.85;4.03;;;;;;;;;;5067124;28;20047;-80
2022/09/10 10:19:00;;;;;;;7.28;3.90;;;;;;;;;;5067347;28;20149;-81
2022/09/10 10:21:35;;;;;;;5.30;3.38;;;;;;;;;;5053987;28;20058;-80
2022/09/10 10:24:02;;;;;;;6.97;3.42;;;;;;;;;;5053789;28;20044;-80
2022/09/10 10:26:33;;;;;;;5.80;4.22;;;;;;;;;;5018504;28;20048;-81
2022/09/10 10:29:05;;;;;;;9.40;4.15;;;;;;;;;;5062800;28;20040;-80
2022/09/10 10:31:45;;;;;;;4.23;1.60;;;;;;;;;;5043870;28;22503;-80
2022/09/10 10:34:13;;;;;;;0.68;0.60;;;;;;;;;;5059739;28;20039;-80
2022/09/10 10:36:51;;;;;;;1.77;0.60;;;;;;;;;;5039067;28;20040;-80
2022/09/10 10:39:39;;;;;;;1.70;0.65;;;;;;;;;;5046031;28;20077;-80
2022/09/10 10:42:20;;;;;;;1.20;0.73;;;;;;;;;;5029223;28;20040;-80
2022/09/10 10:44:57;;;;;;;1.35;0.43;;;;;;;;;;5052617;28;20067;-81
2022/09/10 10:47:44;;;;;;;1.52;0.85;;;;;;;;;;5060062;28;20504;-80
2022/09/10 10:50:35;;;;;;;0.73;0.30;;;;;;;;;;5058660;28;20044;-81
2022/09/10 10:53:10;;;;;;;1.45;0.35;;;;;;;;;;5068841;28;20028;-81
2022/09/10 10:55:40;;;;;;;1.38;0.47;;;;;;;;;;5058832;28;20043;-81
2022/09/10 10:58:33;;;;;;;3.55;0.60;;;;;;;;;;5047921;28;20029;-81
2022/09/10 11:01:05;;;;;;;2.28;1.10;;;;;;;;;;5050690;28;20028;-81
2022/09/10 11:03:47;;;;;;;4.15;1.15;;;;;;;;;;5052590;28;20033;-81
2022/09/10 11:06:16;;;;;;;2.65;1.55;;;;;;;;;;5066493;28;20521;-81
2022/09/10 11:09:26;;;;;;;4.88;2.45;;;;;;;;;;5062521;28;20033;-81
2022/09/10 11:11:57;;;;;;;4.60;2.45;;;;;;;;;;5007155;28;20569;-81
2022/09/10 11:14:23;;;;;;;5.85;3.00;;;;;;;;;;5053891;28;20020;-81
2022/09/10 11:16:53;;;;;;;4.40;2.88;;;;;;;;;;5050085;28;20021;-82
2022/09/10 11:19:54;;;;;;;5.10;3.15;;;;;;;;;;5046785;28;20085;-81
2022/09/10 11:22:33;;;;;;;6.38;2.80;;;;;;;;;;5042973;28;20491;-81
2022/09/10 11:25:22;;;;;;;6.10;3.03;;;;;;;;;;5069314;28;20447;-82
2022/09/10 11:27:55;;;;;;;6.25;3.38;;;;;;;;;;5034634;28;20051;-81
2022/09/10 11:30:21;;;;;;;6.95;2.85;;;;;;;;;;5078378;28;20028;-82
2022/09/10 11:32:49;;;;;;;3.55;2.55;;;;;;;;;;5065930;28;20031;-82
2022/09/10 11:35:17;;;;;;;3.70;2.45;;;;;;;;;;5051925;28;20101;-81
2022/09/10 11:38:00;;;;;;;5.32;2.58;;;;;;;;;;5050268;28;20104;-82
2022/09/10 11:40:59;;;;;;;4.97;3.20;;;;;;;;;;5066264;28;20498;-81
2022/09/10 11:43:36;;;;;;;5.93;3.45;;;;;;;;;;5076719;28;20024;-81
2022/09/10 11:46:05;;;;;;;6.88;4.20;;;;;;;;;;5074785;28;20392;-81
2022/09/10 11:48:50;;;;;;;7.25;5.10;;;;;;;;;;5048827;28;20088;-81
2022/09/10 11:51:37;;;;;;;7.63;4.78;;;;;;;;;;5071003;28;20025;-81
2022/09/10 11:54:06;;;;;;;8.38;4.85;;;;;;;;;;5064663;28;20134;-81
2022/09/10 11:56:34;;;;;;;7.50;5.22;;;;;;;;;;5072530;28;20028;-81
2022/09/10 11:59:24;;;;;;;8.10;5.35;;;;;;;;;;5052227;28;20032;-81
2022/09/10 12:02:14;;;;;;;5.55;4.45;;;;;;;;;;5071530;28;20033;-81
2022/09/10 12:04:58;;;;;;;6.35;5.00;;;;;;;;;;5051624;28;20054;-81
2022/09/10 12:07:35;;;;;;;8.65;5.40;;;;;;;;;;5058077;28;20075;-81
2022/09/10 12:10:31;;;;;;;8.13;5.43;;;;;;;;;;5059421;28;20028;-81
2022/09/10 12:12:57;;;;;;;6.68;5.38;;;;;;;;;;5064921;28;20032;-81
2022/09/10 12:15:25;;;;;;;6.18;5.20;;;;;;;;;;5067653;28;20032;-81
2022/09/10 12:17:59;;;;;;;9.05;6.07;;;;;;;;;;5051785;28;20503;-81
2022/09/10 12:20:41;;;;;;;5.15;4.40;;;;;;;;;;5074501;28;20051;-82
2022/09/10 12:23:15;;;;;;;8.10;4.55;;;;;;;;;;5056957;28;20021;-81
2022/09/10 12:25:40;;;;;;;6.82;4.75;;;;;;;;;;5053782;28;20226;-81
2022/09/10 12:28:40;;;;;;;7.00;4.80;;;;;;;;;;5073069;28;20125;-82
2022/09/10 12:31:08;;;;;;;6.18;4.50;;;;;;;;;;5068729;28;20067;-82
2022/09/10 12:33:56;;;;;;;5.53;4.07;;;;;;;;;;5058089;28;20025;-81
2022/09/10 12:36:24;;;;;;;6.20;3.88;;;;;;;;;;5052726;28;20024;-81
2022/09/10 12:39:15;;;;;;;5.88;4.40;;;;;;;;;;5060903;28;20028;-82
2022/09/10 12:41:40;;;;;;;7.43;5.40;;;;;;;;;;5042532;28;20029;-82
2022/09/10 12:44:24;;;;;;;7.80;5.25;;;;;;;;;;5058589;28;20039;-82
2022/09/10 12:47:15;;;;;;;7.85;5.95;;;;;;;;;;5066387;28;20060;-82
2022/09/10 12:50:22;;;;;;;7.50;5.90;;;;;;;;;;5065122;28;20046;-82
2022/09/10 12:52:50;;;;;;;7.10;4.72;;;;;;;;;;5015876;28;20051;-83
2022/09/10 12:55:42;;;;;;;8.18;6.15;;;;;;;;;;5057583;28;20481;-81
2022/09/10 12:58:38;;;;;;;10.70;5.72;;;;;;;;;;5061369;28;20017;-82
2022/09/10 13:01:45;;;;;;;7.45;4.97;;;;;;;;;;5048766;28;20037;-80
2022/09/10 13:04:36;;;;;;;7.28;4.82;;;;;;;;;;5058391;28;20090;-81
2022/09/10 13:07:18;;;;;;;9.30;5.10;;;;;;;;;;5045937;28;20037;-82
2022/09/10 13:09:45;;;;;;;6.70;4.80;;;;;;;;;;5052198;28;20055;-81
2022/09/10 13:12:20;;;;;;;6.75;4.32;;;;;;;;;;5045059;28;20451;-81
2022/09/10 13:14:52;;;;;;;7.03;3.88;;;;;;;;;;5065061;28;20090;-82
2022/09/10 13:17:58;;;;;;;6.10;3.92;;;;;;;;;;5062799;28;20021;-81
2022/09/10 13:20:23;;;;;;;8.55;4.10;;;;;;;;;;5032390;28;20098;-82
2022/09/10 13:23:02;;;;;;;5.40;3.88;;;;;;;;;;5067907;28;20511;-82
2022/09/10 13:25:42;;;;;;;4.35;3.40;;;;;;;;;;5056720;28;20542;-82
2022/09/10 13:28:29;;;;;;;5.85;4.25;;;;;;;;;;5049439;28;20021;-82
2022/09/10 13:31:07;;;;;;;5.78;3.72;;;;;;;;;;5074175;28;20494;-82
2022/09/10 13:33:48;;;;;;;6.13;4.40;;;;;;;;;;5056735;28;20036;-82
2022/09/10 13:36:22;;;;;;;6.13;4.20;;;;;;;;;;5063546;28;20104;-83
2022/09/10 13:38:56;;;;;;;6.57;4.15;;;;;;;;;;5049996;28;20021;-80
2022/09/10 13:41:32;;;;;;;7.05;4.03;;;;;;;;;;5046167;28;20480;-82
2022/09/10 13:44:12;;;;;;;6.93;4.07;;;;;;;;;;5061802;28;20105;-81
2022/09/10 13:46:52;;;;;;;10.02;4.50;;;;;;;;;;5064106;28;20112;-82
2022/09/10 13:49:36;;;;;;;6.35;4.00;;;;;;;;;;5055004;28;20020;-82
2022/09/10 13:52:04;;;;;;;6.93;3.88;;;;;;;;;;5068081;28;20081;-82
2022/09/10 13:54:35;;;;;;;5.72;4.05;;;;;;;;;;5070716;28;20404;-82
2022/09/10 13:57:10;;;;;;;5.40;3.80;;;;;;;;;;5069264;28;20024;-82
2022/09/10 13:59:36;;;;;;;6.22;4.10;;;;;;;;;;5054611;28;20039;-83
2022/09/10 14:02:02;;;;;;;7.13;5.00;;;;;;;;;;5071606;28;20025;-82
2022/09/10 14:04:34;;;;;;;6.65;4.47;;;;;;;;;;5056822;28;20045;-82
2022/09/10 14:07:11;;;;;;;5.78;3.97;;;;;;;;;;5067928;28;20361;-81
2022/09/10 14:09:45;;;;;;;5.03;3.88;;;;;;;;;;5043923;28;20024;-83
2022/09/10 14:12:12;;;;;;;5.13;3.83;;;;;;;;;;5040659;28;20025;-82
2022/09/10 14:14:42;;;;;;;9.35;4.13;;;;;;;;;;5065204;28;20032;-82
2022/09/10 14:17:14;;;;;;;4.00;3.05;;;;;;;;;;5061071;28;20095;-83
2022/09/10 14:19:48;;;;;;;2.58;1.70;;;;;;;;;;5058662;28;20362;-83
2022/09/10 14:22:21;;;;;;;2.85;1.23;;;;;;;;;;5054654;28;20078;-80
2022/09/10 14:24:52;;;;;;;1.33;1.08;;;;;;;;;;5062641;28;20511;-83
2022/09/10 14:27:37;;;;;;;2.22;1.10;;;;;;;;;;5071068;28;20027;-82
2022/09/10 14:30:22;;;;;;;2.28;1.10;;;;;;;;;;5067286;28;20165;-82
2022/09/10 14:32:49;;;;;;;2.90;1.20;;;;;;;;;;5059863;28;20044;-83
2022/09/10 14:35:41;;;;;;;3.83;1.45;;;;;;;;;;5062445;28;20029;-83
2022/09/10 14:38:20;;;;;;;2.10;1.40;;;;;;;;;;5063604;28;20024;-82
2022/09/10 14:40:46;;;;;;;2.85;1.40;;;;;;;;;;5058132;28;20484;-82
2022/09/10 14:43:34;;;;;;;3.63;1.58;;;;;;;;;;5058883;28;20032;-82
2022/09/10 14:46:01;;;;;;;3.72;1.90;;;;;;;;;;5046874;28;20124;-82
2022/09/10 14:48:37;;;;;;;3.15;2.03;;;;;;;;;;5055342;28;20031;-82
2022/09/10 14:51:09;;;;;;;3.25;1.98;;;;;;;;;;5064888;28;20480;-82
2022/09/10 14:53:36;;;;;;;3.90;1.92;;;;;;;;;;5056381;28;20032;-82
2022/09/10 14:56:03;;;;;;;5.00;2.22;;;;;;;;;;5072629;28;20496;-82
2022/09/10 14:58:28;;;;;;;4.53;2.28;;;;;;;;;;5075052;28;20020;-82
2022/09/10 15:00:54;;;;;;;2.40;1.83;;;;;;;;;;5061402;28;20035;-82
2022/09/10 15:03:19;;;;;;;3.42;2.00;;;;;;;;;;5048323;28;20033;-81
2022/09/10 15:05:45;;;;;;;4.35;2.40;;;;;;;;;;5060839;28;20064;-82
2022/09/10 15:08:10;;;;;;;5.22;2.53;;;;;;;;;;5046808;28;20028;-81
2022/09/10 15:10:35;;;;;;;3.65;2.10;;;;;;;;;;5063987;28;20032;-82